North Avondale, Colorado
Current Conditions -  °F | °C
As of 7:53 PM on Tuesday 25 Nov 2014 (Local Time) from KPUB Reporting Station
Clear Clear  
Wind Chill: 44°   Ceiling: Unl
Heat Index: 49°   Visibility: 10mi
Dew Point: 22°   Wind: 14mph
Humidity: 35%   Direction: 300°WNW
Pressure: 29.95"   Gusts: 23mph
Location:  38.0104°N, 104.392°W
Report Text: KPUB 260253Z 30012G20KT 10SM CLR 09/M06 A2995 RMK AO2 SLP149 T00941056 51016
Loading
Personal Weather Stations






























Interactive Weather Map New forecast layout! Learn more

10-Day Weather Forecast

Advertisements
Track Severe Weather on mobile